sensor_id;sensor_type;location;lat;lon;timestamp;pressure;altitude;pressure_sealevel;temperature;humidity
68994;BME280;56054;50.968;5.816;2023-09-18T00:01:00;99827.25;;;22.16;100.00
68994;BME280;56054;50.968;5.816;2023-09-18T00:04:07;99818.47;;;22.43;100.00
68994;BME280;56054;50.968;5.816;2023-09-18T00:07:14;99801.72;;;22.46;100.00
68994;BME280;56054;50.968;5.816;2023-09-18T00:10:21;99793.78;;;22.42;100.00
68994;BME280;56054;50.968;5.816;2023-09-18T00:13:28;99789.38;;;22.41;100.00
68994;BME280;56054;50.968;5.816;2023-09-18T00:16:35;99787.63;;;22.43;100.00
68994;BME280;56054;50.968;5.816;2023-09-18T00:19:43;99778.78;;;22.40;100.00
68994;BME280;56054;50.968;5.816;2023-09-18T00:22:49;99775.25;;;22.33;100.00
68994;BME280;56054;50.968;5.816;2023-09-18T00:25:56;99776.16;;;22.29;100.00
68994;BME280;56054;50.968;5.816;2023-09-18T00:29:03;99767.28;;;22.18;100.00
68994;BME280;56054;50.968;5.816;2023-09-18T00:32:10;99763.78;;;22.30;100.00
68994;BME280;56054;50.968;5.816;2023-09-18T00:35:17;99756.69;;;22.13;100.00
68994;BME280;56054;50.968;5.816;2023-09-18T00:38:24;99761.13;;;22.14;100.00
68994;BME280;56054;50.968;5.816;2023-09-18T00:41:31;99758.50;;;22.20;100.00
68994;BME280;56054;50.968;5.816;2023-09-18T00:44:38;99754.91;;;22.18;100.00
68994;BME280;56054;50.968;5.816;2023-09-18T00:47:45;99753.19;;;22.14;100.00
68994;BME280;56054;50.968;5.816;2023-09-18T00:50:52;99754.94;;;22.00;100.00
68994;BME280;56054;50.968;5.816;2023-09-18T00:53:59;99745.19;;;21.74;100.00
68994;BME280;56054;50.968;5.816;2023-09-18T00:57:08;99746.09;;;21.86;100.00
68994;BME280;56054;50.968;5.816;2023-09-18T01:00:15;99754.03;;;21.90;100.00
68994;BME280;56054;50.968;5.816;2023-09-18T01:03:22;99752.25;;;21.97;100.00
68994;BME280;56054;50.968;5.816;2023-09-18T01:06:29;99761.06;;;21.91;100.00
68994;BME280;56054;50.968;5.816;2023-09-18T01:09:36;99751.41;;;21.98;100.00
68994;BME280;56054;50.968;5.816;2023-09-18T01:13:04;99746.94;;;21.71;100.00
68994;BME280;56054;50.968;5.816;2023-09-18T01:16:22;99735.50;;;21.84;100.00
68994;BME280;56054;50.968;5.816;2023-09-18T01:19:39;99721.41;;;21.96;100.00
68994;BME280;56054;50.968;5.816;2023-09-18T01:22:46;99714.38;;;21.83;100.00
68994;BME280;56054;50.968;5.816;2023-09-18T01:25:53;99703.75;;;21.67;100.00
68994;BME280;56054;50.968;5.816;2023-09-18T01:29:00;99703.75;;;21.75;100.00
68994;BME280;56054;50.968;5.816;2023-09-18T01:32:07;99696.72;;;21.78;100.00
68994;BME280;56054;50.968;5.816;2023-09-18T01:35:15;99692.31;;;21.74;100.00
68994;BME280;56054;50.968;5.816;2023-09-18T01:38:23;99696.69;;;21.60;100.00
68994;BME280;56054;50.968;5.816;2023-09-18T01:41:31;99683.47;;;21.58;100.00
68994;BME280;56054;50.968;5.816;2023-09-18T01:44:38;99672.91;;;21.62;100.00
68994;BME280;56054;50.968;5.816;2023-09-18T01:47:46;99687.88;;;21.55;100.00
68994;BME280;56054;50.968;5.816;2023-09-18T01:50:52;99676.41;;;21.65;100.00
68994;BME280;56054;50.968;5.816;2023-09-18T01:54:00;99677.31;;;21.53;100.00
68994;BME280;56054;50.968;5.816;2023-09-18T01:57:06;99664.97;;;21.60;100.00
68994;BME280;56054;50.968;5.816;2023-09-18T02:00:14;99664.97;;;21.69;100.00
68994;BME280;56054;50.968;5.816;2023-09-18T02:03:21;99663.25;;;21.73;100.00
68994;BME280;56054;50.968;5.816;2023-09-18T02:06:28;99650.00;;;21.64;100.00
68994;BME280;56054;50.968;5.816;2023-09-18T02:09:35;99653.50;;;21.55;100.00
68994;BME280;56054;50.968;5.816;2023-09-18T02:12:42;99648.25;;;21.64;100.00
68994;BME280;56054;50.968;5.816;2023-09-18T02:15:49;99658.78;;;21.46;100.00
68994;BME280;56054;50.968;5.816;2023-09-18T02:18:56;99668.41;;;21.34;100.00
68994;BME280;56054;50.968;5.816;2023-09-18T02:22:03;99672.00;;;21.40;100.00
68994;BME280;56054;50.968;5.816;2023-09-18T02:25:10;99672.00;;;21.55;100.00
68994;BME280;56054;50.968;5.816;2023-09-18T02:28:17;99664.97;;;21.77;100.00
68994;BME280;56054;50.968;5.816;2023-09-18T02:31:24;99658.81;;;21.66;100.00
68994;BME280;56054;50.968;5.816;2023-09-18T02:34:31;99671.16;;;21.80;100.00
68994;BME280;56054;50.968;5.816;2023-09-18T02:37:38;99662.34;;;21.82;100.00
68994;BME280;56054;50.968;5.816;2023-09-18T02:40:45;99661.47;;;21.83;100.00
68994;BME280;56054;50.968;5.816;2023-09-18T02:43:52;99645.59;;;21.89;100.00
68994;BME280;56054;50.968;5.816;2023-09-18T02:47:00;99641.22;;;21.92;100.00
68994;BME280;56054;50.968;5.816;2023-09-18T02:50:08;99632.38;;;21.81;100.00
68994;BME280;56054;50.968;5.816;2023-09-18T02:53:20;99631.50;;;21.71;100.00
68994;BME280;56054;50.968;5.816;2023-09-18T02:56:27;99630.63;;;21.74;100.00
68994;BME280;56054;50.968;5.816;2023-09-18T02:59:34;99628.88;;;21.85;100.00
68994;BME280;56054;50.968;5.816;2023-09-18T03:02:42;99637.66;;;21.89;100.00
68994;BME280;56054;50.968;5.816;2023-09-18T03:05:49;99633.28;;;21.88;100.00
68994;BME280;56054;50.968;5.816;2023-09-18T03:08:56;99608.56;;;21.89;100.00
68994;BME280;56054;50.968;5.816;2023-09-18T03:12:04;99605.06;;;21.90;100.00
68994;BME280;56054;50.968;5.816;2023-09-18T03:15:10;99596.25;;;21.82;100.00
68994;BME280;56054;50.968;5.816;2023-09-18T03:18:18;99607.69;;;21.88;100.00
68994;BME280;56054;50.968;5.816;2023-09-18T03:21:24;99636.78;;;21.84;100.00
68994;BME280;56054;50.968;5.816;2023-09-18T03:24:31;99629.72;;;21.79;100.00
68994;BME280;56054;50.968;5.816;2023-09-18T03:27:38;99600.66;;;21.81;100.00
68994;BME280;56054;50.968;5.816;2023-09-18T03:30:52;99588.31;;;21.77;100.00
68994;BME280;56054;50.968;5.816;2023-09-18T03:33:59;99565.41;;;21.79;100.00
68994;BME280;56054;50.968;5.816;2023-09-18T03:37:06;99580.38;;;21.72;100.00
68994;BME280;56054;50.968;5.816;2023-09-18T03:40:14;99583.03;;;21.74;100.00
68994;BME280;56054;50.968;5.816;2023-09-18T03:43:22;99588.31;;;21.66;100.00
68994;BME280;56054;50.968;5.816;2023-09-18T03:46:29;99576.84;;;21.50;100.00
68994;BME280;56054;50.968;5.816;2023-09-18T03:49:36;99576.84;;;21.67;100.00
68994;BME280;56054;50.968;5.816;2023-09-18T03:52:43;99573.34;;;21.57;100.00
68994;BME280;56054;50.968;5.816;2023-09-18T03:55:50;99583.03;;;21.57;100.00
68994;BME280;56054;50.968;5.816;2023-09-18T03:58:57;99570.69;;;21.45;100.00
68994;BME280;56054;50.968;5.816;2023-09-18T04:02:04;99564.53;;;21.55;100.00
68994;BME280;56054;50.968;5.816;2023-09-18T04:05:12;99550.41;;;21.46;100.00
68994;BME280;56054;50.968;5.816;2023-09-18T04:08:19;99560.13;;;21.56;100.00
68994;BME280;56054;50.968;5.816;2023-09-18T04:11:26;99549.56;;;21.47;100.00
68994;BME280;56054;50.968;5.816;2023-09-18T04:14:33;99538.09;;;21.38;100.00
68994;BME280;56054;50.968;5.816;2023-09-18T04:17:40;99526.66;;;21.41;100.00
68994;BME280;56054;50.968;5.816;2023-09-18T04:20:47;99529.25;;;21.38;100.00
68994;BME280;56054;50.968;5.816;2023-09-18T04:23:55;99521.34;;;21.36;100.00
68994;BME280;56054;50.968;5.816;2023-09-18T04:27:03;99536.31;;;21.27;100.00
68994;BME280;56054;50.968;5.816;2023-09-18T04:30:10;99519.56;;;21.31;100.00
68994;BME280;56054;50.968;5.816;2023-09-18T04:33:16;99523.09;;;21.37;100.00
68994;BME280;56054;50.968;5.816;2023-09-18T04:36:24;99527.50;;;21.32;100.00
68994;BME280;56054;50.968;5.816;2023-09-18T04:39:30;99522.25;;;21.40;100.00
68994;BME280;56054;50.968;5.816;2023-09-18T04:42:38;99521.34;;;21.27;100.00
68994;BME280;56054;50.968;5.816;2023-09-18T04:45:45;99523.09;;;21.30;100.00
68994;BME280;56054;50.968;5.816;2023-09-18T04:48:52;99512.53;;;21.22;100.00
68994;BME280;56054;50.968;5.816;2023-09-18T04:51:59;99531.03;;;21.19;100.00
68994;BME280;56054;50.968;5.816;2023-09-18T04:55:06;99533.66;;;21.24;100.00
68994;BME280;56054;50.968;5.816;2023-09-18T04:58:13;99530.13;;;21.28;100.00
68994;BME280;56054;50.968;5.816;2023-09-18T05:01:21;99531.03;;;21.34;100.00
68994;BME280;56054;50.968;5.816;2023-09-18T05:04:28;99544.22;;;21.17;100.00
68994;BME280;56054;50.968;5.816;2023-09-18T05:07:35;99535.44;;;21.20;100.00
68994;BME280;56054;50.968;5.816;2023-09-18T05:10:41;99541.56;;;21.13;100.00
68994;BME280;56054;50.968;5.816;2023-09-18T05:13:48;99545.97;;;21.11;100.00
68994;BME280;56054;50.968;5.816;2023-09-18T05:16:55;99555.66;;;21.18;100.00
68994;BME280;56054;50.968;5.816;2023-09-18T05:20:03;99545.09;;;21.09;100.00
68994;BME280;56054;50.968;5.816;2023-09-18T05:23:09;99560.94;;;21.09;100.00
68994;BME280;56054;50.968;5.816;2023-09-18T05:26:16;99560.06;;;21.08;100.00
68994;BME280;56054;50.968;5.816;2023-09-18T05:29:23;99546.84;;;21.08;100.00
68994;BME280;56054;50.968;5.816;2023-09-18T05:32:36;99554.75;;;20.99;100.00
68994;BME280;56054;50.968;5.816;2023-09-18T05:35:44;99564.44;;;21.02;100.00
68994;BME280;56054;50.968;5.816;2023-09-18T05:38:51;99570.63;;;21.10;100.00
68994;BME280;56054;50.968;5.816;2023-09-18T05:41:58;99580.28;;;21.02;100.00
68994;BME280;56054;50.968;5.816;2023-09-18T05:45:06;99582.06;;;21.00;100.00
68994;BME280;56054;50.968;5.816;2023-09-18T05:48:12;99580.28;;;20.95;100.00
68994;BME280;56054;50.968;5.816;2023-09-18T05:51:19;99589.06;;;20.88;100.00
68994;BME280;56054;50.968;5.816;2023-09-18T05:54:26;99586.41;;;20.87;100.00
68994;BME280;56054;50.968;5.816;2023-09-18T05:57:34;99586.41;;;20.87;100.00
68994;BME280;56054;50.968;5.816;2023-09-18T06:00:40;99586.41;;;20.81;100.00
68994;BME280;56054;50.968;5.816;2023-09-18T06:03:47;99603.13;;;20.83;100.00
68994;BME280;56054;50.968;5.816;2023-09-18T06:06:54;99600.50;;;20.87;100.00
68994;BME280;56054;50.968;5.816;2023-09-18T06:10:05;99601.34;;;20.74;100.00
68994;BME280;56054;50.968;5.816;2023-09-18T06:13:11;99605.78;;;20.89;100.00
68994;BME280;56054;50.968;5.816;2023-09-18T06:16:18;99605.75;;;20.81;100.00
68994;BME280;56054;50.968;5.816;2023-09-18T06:19:25;99611.94;;;20.83;100.00
68994;BME280;56054;50.968;5.816;2023-09-18T06:22:32;99611.00;;;20.72;100.00
68994;BME280;56054;50.968;5.816;2023-09-18T06:25:40;99630.41;;;20.80;100.00
68994;BME280;56054;50.968;5.816;2023-09-18T06:28:46;99637.47;;;20.87;100.00
68994;BME280;56054;50.968;5.816;2023-09-18T06:31:53;99653.25;;;20.77;100.00
68994;BME280;56054;50.968;5.816;2023-09-18T06:35:01;99645.38;;;20.83;100.00
68994;BME280;56054;50.968;5.816;2023-09-18T06:38:07;99655.03;;;20.81;100.00
68994;BME280;56054;50.968;5.816;2023-09-18T06:41:14;99664.78;;;20.92;100.00
68994;BME280;56054;50.968;5.816;2023-09-18T06:44:21;99659.44;;;20.80;100.00
68994;BME280;56054;50.968;5.816;2023-09-18T06:47:28;99663.88;;;20.90;100.00
68994;BME280;56054;50.968;5.816;2023-09-18T06:50:35;99664.75;;;20.94;100.00
68994;BME280;56054;50.968;5.816;2023-09-18T06:53:45;99644.53;;;20.93;100.00
68994;BME280;56054;50.968;5.816;2023-09-18T06:56:53;99669.16;;;20.93;100.00
68994;BME280;56054;50.968;5.816;2023-09-18T07:00:01;99665.66;;;20.90;100.00
68994;BME280;56054;50.968;5.816;2023-09-18T07:03:10;99669.13;;;20.83;100.00
68994;BME280;56054;50.968;5.816;2023-09-18T07:06:17;99656.75;;;20.77;100.00
68994;BME280;56054;50.968;5.816;2023-09-18T07:09:26;99670.91;;;20.85;100.00
68994;BME280;56054;50.968;5.816;2023-09-18T07:12:32;99682.38;;;20.93;100.00
68994;BME280;56054;50.968;5.816;2023-09-18T07:15:40;99649.75;;;20.76;100.00
68994;BME280;56054;50.968;5.816;2023-09-18T07:18:46;99682.31;;;20.84;100.00
68994;BME280;56054;50.968;5.816;2023-09-18T07:21:56;99675.28;;;20.83;100.00
68994;BME280;56054;50.968;5.816;2023-09-18T07:25:07;99655.88;;;20.75;100.00
68994;BME280;56054;50.968;5.816;2023-09-18T07:28:13;99681.50;;;20.93;100.00
68994;BME280;56054;50.968;5.816;2023-09-18T07:31:20;99685.88;;;20.89;100.00
68994;BME280;56054;50.968;5.816;2023-09-18T07:34:28;99682.41;;;21.00;100.00
68994;BME280;56054;50.968;5.816;2023-09-18T07:37:36;99695.63;;;21.06;100.00
68994;BME280;56054;50.968;5.816;2023-09-18T07:40:42;99686.81;;;21.01;100.00
68994;BME280;56054;50.968;5.816;2023-09-18T07:43:49;99695.63;;;21.09;100.00
68994;BME280;56054;50.968;5.816;2023-09-18T07:46:56;99682.44;;;21.10;100.00
68994;BME280;56054;50.968;5.816;2023-09-18T07:50:04;99692.97;;;21.06;100.00
68994;BME280;56054;50.968;5.816;2023-09-18T07:53:11;99701.81;;;21.19;100.00
68994;BME280;56054;50.968;5.816;2023-09-18T07:56:18;99696.47;;;21.02;100.00
68994;BME280;56054;50.968;5.816;2023-09-18T07:59:28;99693.91;;;21.17;100.00
68994;BME280;56054;50.968;5.816;2023-09-18T08:02:35;99717.66;;;21.12;100.00
68994;BME280;56054;50.968;5.816;2023-09-18T08:05:42;99715.00;;;21.14;100.00
68994;BME280;56054;50.968;5.816;2023-09-18T08:08:50;99725.56;;;21.14;100.00
68994;BME280;56054;50.968;5.816;2023-09-18T08:11:57;99727.41;;;21.24;100.00
68994;BME280;56054;50.968;5.816;2023-09-18T08:15:05;99744.97;;;21.21;100.00
68994;BME280;56054;50.968;5.816;2023-09-18T08:18:12;99726.50;;;21.22;100.00
68994;BME280;56054;50.968;5.816;2023-09-18T08:21:19;99732.63;;;21.13;100.00
68994;BME280;56054;50.968;5.816;2023-09-18T08:24:26;99737.13;;;21.34;100.00
68994;BME280;56054;50.968;5.816;2023-09-18T08:27:33;99739.81;;;21.45;100.00
68994;BME280;56054;50.968;5.816;2023-09-18T08:30:40;99740.63;;;21.29;100.00
68994;BME280;56054;50.968;5.816;2023-09-18T08:33:47;99741.53;;;21.37;100.00
68994;BME280;56054;50.968;5.816;2023-09-18T08:36:54;99748.63;;;21.41;100.00
68994;BME280;56054;50.968;5.816;2023-09-18T08:40:01;99746.75;;;21.26;100.00
68994;BME280;56054;50.968;5.816;2023-09-18T08:43:10;99748.63;;;21.41;100.00
68994;BME280;56054;50.968;5.816;2023-09-18T08:46:17;99751.31;;;21.49;100.00
68994;BME280;56054;50.968;5.816;2023-09-18T08:49:26;99752.16;;;21.45;100.00
68994;BME280;56054;50.968;5.816;2023-09-18T08:52:36;99758.34;;;21.51;100.00
68994;BME280;56054;50.968;5.816;2023-09-18T08:55:43;99742.53;;;21.61;100.00
68994;BME280;56054;50.968;5.816;2023-09-18T08:58:50;99743.41;;;21.69;100.00
68994;BME280;56054;50.968;5.816;2023-09-18T09:01:57;99740.81;;;21.86;100.00
68994;BME280;56054;50.968;5.816;2023-09-18T09:05:05;99736.38;;;21.74;100.00
68994;BME280;56054;50.968;5.816;2023-09-18T09:08:12;99752.25;;;21.94;100.00
68994;BME280;56054;50.968;5.816;2023-09-18T09:11:19;99744.34;;;22.15;100.00
68994;BME280;56054;50.968;5.816;2023-09-18T09:14:26;99744.38;;;22.37;100.00
68994;BME280;56054;50.968;5.816;2023-09-18T09:17:36;99750.56;;;22.37;99.89
68994;BME280;56054;50.968;5.816;2023-09-18T09:20:58;99726.72;;;22.36;99.76
68994;BME280;56054;50.968;5.816;2023-09-18T09:24:06;99734.63;;;22.68;99.12
68994;BME280;56054;50.968;5.816;2023-09-18T09:27:12;99738.16;;;22.59;97.66
68994;BME280;56054;50.968;5.816;2023-09-18T09:30:27;99740.78;;;22.72;98.25
68994;BME280;56054;50.968;5.816;2023-09-18T09:33:34;99746.03;;;22.87;96.30
68994;BME280;56054;50.968;5.816;2023-09-18T09:36:54;99758.38;;;23.06;95.17
68994;BME280;56054;50.968;5.816;2023-09-18T09:40:03;99758.41;;;22.93;95.36
68994;BME280;56054;50.968;5.816;2023-09-18T09:43:19;99758.19;;;23.53;93.96
68994;BME280;56054;50.968;5.816;2023-09-18T09:46:25;99746.69;;;23.58;93.07
68994;BME280;56054;50.968;5.816;2023-09-18T09:49:45;99757.44;;;23.26;92.64
68994;BME280;56054;50.968;5.816;2023-09-18T09:52:53;99766.25;;;23.29;92.83
68994;BME280;56054;50.968;5.816;2023-09-18T09:56:00;99767.13;;;23.28;92.63
68994;BME280;56054;50.968;5.816;2023-09-18T09:59:08;99771.56;;;23.28;91.99
68994;BME280;56054;50.968;5.816;2023-09-18T10:02:15;99776.06;;;23.07;93.35
68994;BME280;56054;50.968;5.816;2023-09-18T10:05:26;99775.88;;;23.54;92.53
68994;BME280;56054;50.968;5.816;2023-09-18T10:08:33;99778.38;;;23.86;90.82
68994;BME280;56054;50.968;5.816;2023-09-18T10:11:43;99773.94;;;23.86;90.83
68994;BME280;56054;50.968;5.816;2023-09-18T10:14:52;99770.31;;;24.01;90.79
68994;BME280;56054;50.968;5.816;2023-09-18T10:18:02;99763.44;;;23.62;91.22
68994;BME280;56054;50.968;5.816;2023-09-18T10:24:28;99770.41;;;23.87;89.74
68994;BME280;56054;50.968;5.816;2023-09-18T10:27:40;99767.69;;;23.98;87.46
68994;BME280;56054;50.968;5.816;2023-09-18T10:30:50;99763.25;;;23.99;86.35
68994;BME280;56054;50.968;5.816;2023-09-18T10:33:58;99767.75;;;23.90;86.51
68994;BME280;56054;50.968;5.816;2023-09-18T10:37:08;99761.59;;;23.81;86.78
68994;BME280;56054;50.968;5.816;2023-09-18T10:40:17;99774.03;;;23.68;86.98
68994;BME280;56054;50.968;5.816;2023-09-18T10:43:23;99776.72;;;23.63;86.29
68994;BME280;56054;50.968;5.816;2023-09-18T10:46:31;99771.47;;;23.48;87.36
68994;BME280;56054;50.968;5.816;2023-09-18T10:49:41;99777.59;;;23.59;87.23
68994;BME280;56054;50.968;5.816;2023-09-18T10:52:47;99774.03;;;23.65;86.95
68994;BME280;56054;50.968;5.816;2023-09-18T10:55:55;99783.72;;;23.83;86.84
68994;BME280;56054;50.968;5.816;2023-09-18T10:59:03;99781.09;;;23.75;86.13
68994;BME280;56054;50.968;5.816;2023-09-18T11:02:16;99771.44;;;23.59;85.62
68994;BME280;56054;50.968;5.816;2023-09-18T11:05:34;99782.66;;;24.04;84.28
68994;BME280;56054;50.968;5.816;2023-09-18T11:08:46;99775.56;;;24.09;83.63
68994;BME280;56054;50.968;5.816;2023-09-18T11:15:05;99763.81;;;24.39;83.21
68994;BME280;56054;50.968;5.816;2023-09-18T11:18:19;99770.66;;;24.69;81.80
68994;BME280;56054;50.968;5.816;2023-09-18T11:21:31;99780.34;;;24.73;80.34
68994;BME280;56054;50.968;5.816;2023-09-18T11:24:39;99783.13;;;24.61;80.31
68994;BME280;56054;50.968;5.816;2023-09-18T11:27:53;99784.75;;;24.77;79.41
68994;BME280;56054;50.968;5.816;2023-09-18T11:31:00;99769.69;;;24.76;79.87
68994;BME280;56054;50.968;5.816;2023-09-18T11:37:29;99774.69;;;24.04;81.64
68994;BME280;56054;50.968;5.816;2023-09-18T11:40:40;99772.06;;;24.05;82.72
68994;BME280;56054;50.968;5.816;2023-09-18T11:43:47;99761.84;;;24.63;81.13
68994;BME280;56054;50.968;5.816;2023-09-18T11:46:54;99761.59;;;24.87;79.90
68994;BME280;56054;50.968;5.816;2023-09-18T11:50:02;99764.19;;;24.95;77.72
68994;BME280;56054;50.968;5.816;2023-09-18T11:53:11;99761.50;;;24.99;78.05
68994;BME280;56054;50.968;5.816;2023-09-18T11:56:19;99755.78;;;25.33;74.88
68994;BME280;56054;50.968;5.816;2023-09-18T11:59:42;99751.97;;;24.80;76.59
68994;BME280;56054;50.968;5.816;2023-09-18T12:02:49;99751.75;;;24.97;75.73
68994;BME280;56054;50.968;5.816;2023-09-18T12:06:01;99749.13;;;24.94;75.86
68994;BME280;56054;50.968;5.816;2023-09-18T12:09:09;99747.19;;;25.07;77.71
68994;BME280;56054;50.968;5.816;2023-09-18T12:12:16;99746.66;;;24.78;77.85
68994;BME280;56054;50.968;5.816;2023-09-18T12:15:25;99752.09;;;24.66;76.92
68994;BME280;56054;50.968;5.816;2023-09-18T12:18:33;99745.19;;;24.47;75.17
68994;BME280;56054;50.968;5.816;2023-09-18T12:21:40;99745.38;;;24.22;77.31
68994;BME280;56054;50.968;5.816;2023-09-18T12:24:47;99743.56;;;24.27;78.63
68994;BME280;56054;50.968;5.816;2023-09-18T12:27:55;99739.06;;;24.37;78.26
68994;BME280;56054;50.968;5.816;2023-09-18T12:31:06;99739.25;;;25.05;75.77
68994;BME280;56054;50.968;5.816;2023-09-18T12:34:20;99735.94;;;24.88;73.92
68994;BME280;56054;50.968;5.816;2023-09-18T12:37:28;99739.69;;;24.65;74.64
68994;BME280;56054;50.968;5.816;2023-09-18T12:40:35;99735.97;;;24.82;74.86
68994;BME280;56054;50.968;5.816;2023-09-18T12:43:42;99735.47;;;25.28;73.93
68994;BME280;56054;50.968;5.816;2023-09-18T12:46:50;99723.88;;;25.33;73.12
68994;BME280;56054;50.968;5.816;2023-09-18T12:50:04;99740.00;;;25.16;69.79
68994;BME280;56054;50.968;5.816;2023-09-18T12:53:13;99738.31;;;25.11;69.58
68994;BME280;56054;50.968;5.816;2023-09-18T12:56:21;99735.25;;;25.45;68.53
68994;BME280;56054;50.968;5.816;2023-09-18T12:59:31;99731.50;;;25.59;66.52
68994;BME280;56054;50.968;5.816;2023-09-18T13:02:38;99724.78;;;25.94;65.91
68994;BME280;56054;50.968;5.816;2023-09-18T13:05:46;99724.78;;;25.31;66.94
68994;BME280;56054;50.968;5.816;2023-09-18T13:08:53;99730.16;;;25.93;66.61
68994;BME280;56054;50.968;5.816;2023-09-18T13:12:00;99717.81;;;25.84;66.41
68994;BME280;56054;50.968;5.816;2023-09-18T13:15:07;99718.81;;;25.78;67.23
68994;BME280;56054;50.968;5.816;2023-09-18T13:18:15;99715.16;;;25.87;65.31
68994;BME280;56054;50.968;5.816;2023-09-18T13:21:23;99715.41;;;25.69;65.68
68994;BME280;56054;50.968;5.816;2023-09-18T13:24:30;99702.25;;;25.59;66.51
68994;BME280;56054;50.968;5.816;2023-09-18T13:27:38;99690.78;;;25.54;67.18
68994;BME280;56054;50.968;5.816;2023-09-18T13:30:45;99696.06;;;25.57;67.51
68994;BME280;56054;50.968;5.816;2023-09-18T13:33:52;99693.03;;;25.20;67.49
68994;BME280;56054;50.968;5.816;2023-09-18T13:36:59;99689.47;;;25.23;66.83
68994;BME280;56054;50.968;5.816;2023-09-18T13:40:06;99685.09;;;25.14;65.90
68994;BME280;56054;50.968;5.816;2023-09-18T13:43:14;99678.47;;;25.47;65.19
68994;BME280;56054;50.968;5.816;2023-09-18T13:46:22;99665.69;;;25.09;65.20
68994;BME280;56054;50.968;5.816;2023-09-18T13:49:29;99657.44;;;25.32;64.89
68994;BME280;56054;50.968;5.816;2023-09-18T13:52:36;99657.44;;;25.30;65.25
68994;BME280;56054;50.968;5.816;2023-09-18T13:55:48;99655.09;;;25.07;63.02
68994;BME280;56054;50.968;5.816;2023-09-18T13:58:55;99655.53;;;25.40;62.71
68994;BME280;56054;50.968;5.816;2023-09-18T14:02:02;99650.72;;;25.65;62.19
68994;BME280;56054;50.968;5.816;2023-09-18T14:05:09;99639.38;;;25.54;59.68
68994;BME280;56054;50.968;5.816;2023-09-18T14:08:17;99638.88;;;25.86;57.52
68994;BME280;56054;50.968;5.816;2023-09-18T14:11:24;99651.34;;;25.82;57.53
68994;BME280;56054;50.968;5.816;2023-09-18T14:14:31;99651.28;;;25.87;58.10
68994;BME280;56054;50.968;5.816;2023-09-18T14:17:39;99643.78;;;25.56;57.76
68994;BME280;56054;50.968;5.816;2023-09-18T14:20:46;99639.97;;;25.73;57.08
68994;BME280;56054;50.968;5.816;2023-09-18T14:23:53;99640.69;;;25.86;55.47
68994;BME280;56054;50.968;5.816;2023-09-18T14:27:03;99631.78;;;25.85;55.99
68994;BME280;56054;50.968;5.816;2023-09-18T14:30:13;99624.75;;;25.81;56.95
68994;BME280;56054;50.968;5.816;2023-09-18T14:33:20;99622.84;;;25.92;56.27
68994;BME280;56054;50.968;5.816;2023-09-18T14:36:27;99627.25;;;25.93;55.78
68994;BME280;56054;50.968;5.816;2023-09-18T14:39:34;99620.75;;;26.10;56.62
68994;BME280;56054;50.968;5.816;2023-09-18T14:42:41;99627.66;;;26.20;55.98
68994;BME280;56054;50.968;5.816;2023-09-18T14:45:48;99628.28;;;26.33;56.08
68994;BME280;56054;50.968;5.816;2023-09-18T14:48:55;99625.06;;;26.17;55.90
68994;BME280;56054;50.968;5.816;2023-09-18T14:52:02;99626.78;;;26.19;55.89
68994;BME280;56054;50.968;5.816;2023-09-18T14:55:09;99625.00;;;26.18;55.98
68994;BME280;56054;50.968;5.816;2023-09-18T14:58:16;99625.84;;;25.68;56.72
68994;BME280;56054;50.968;5.816;2023-09-18T15:01:23;99616.75;;;25.25;56.80
68994;BME280;56054;50.968;5.816;2023-09-18T15:04:32;99614.84;;;25.36;58.59
68994;BME280;56054;50.968;5.816;2023-09-18T15:07:39;99619.91;;;25.50;58.11
68994;BME280;56054;50.968;5.816;2023-09-18T15:10:46;99604.66;;;26.16;56.81
68994;BME280;56054;50.968;5.816;2023-09-18T15:13:53;99614.63;;;26.04;56.28
68994;BME280;56054;50.968;5.816;2023-09-18T15:17:00;99591.63;;;26.00;56.44
68994;BME280;56054;50.968;5.816;2023-09-18T15:20:32;99589.22;;;25.85;55.87
68994;BME280;56054;50.968;5.816;2023-09-18T15:23:46;99574.00;;;25.95;55.98
68994;BME280;56054;50.968;5.816;2023-09-18T15:26:54;99572.75;;;26.13;56.12
68994;BME280;56054;50.968;5.816;2023-09-18T15:30:01;99567.84;;;25.90;55.55
68994;BME280;56054;50.968;5.816;2023-09-18T15:33:09;99578.16;;;26.10;55.77
68994;BME280;56054;50.968;5.816;2023-09-18T15:36:16;99571.03;;;26.10;55.46
68994;BME280;56054;50.968;5.816;2023-09-18T15:39:23;99574.78;;;26.00;56.15
68994;BME280;56054;50.968;5.816;2023-09-18T15:42:30;99574.81;;;25.98;56.03
68994;BME280;56054;50.968;5.816;2023-09-18T15:45:44;99591.56;;;25.49;57.77
68994;BME280;56054;50.968;5.816;2023-09-18T15:48:51;99586.00;;;25.06;57.23
68994;BME280;56054;50.968;5.816;2023-09-18T15:55:22;99581.44;;;25.15;58.50
68994;BME280;56054;50.968;5.816;2023-09-18T15:58:29;99572.81;;;24.99;58.92
68994;BME280;56054;50.968;5.816;2023-09-18T16:01:36;99593.16;;;25.02;59.56
68994;BME280;56054;50.968;5.816;2023-09-18T16:04:43;99589.31;;;24.55;60.01
68994;BME280;56054;50.968;5.816;2023-09-18T16:07:50;99597.34;;;24.50;60.15
68994;BME280;56054;50.968;5.816;2023-09-18T16:10:57;99610.66;;;24.49;61.07
68994;BME280;56054;50.968;5.816;2023-09-18T16:14:04;99607.28;;;24.31;60.65
68994;BME280;56054;50.968;5.816;2023-09-18T16:17:11;99615.97;;;24.44;61.45
68994;BME280;56054;50.968;5.816;2023-09-18T16:20:18;99623.94;;;24.46;65.24
68994;BME280;56054;50.968;5.816;2023-09-18T16:23:25;99627.94;;;24.00;68.79
68994;BME280;56054;50.968;5.816;2023-09-18T16:26:33;99631.81;;;23.56;73.98
68994;BME280;56054;50.968;5.816;2023-09-18T16:29:40;99648.00;;;23.10;77.71
68994;BME280;56054;50.968;5.816;2023-09-18T16:32:47;99671.00;;;22.88;80.95
68994;BME280;56054;50.968;5.816;2023-09-18T16:35:54;99672.88;;;22.55;89.34
68994;BME280;56054;50.968;5.816;2023-09-18T16:39:01;99701.13;;;22.01;95.90
68994;BME280;56054;50.968;5.816;2023-09-18T16:42:08;99662.28;;;21.38;100.00